createdAt,value
2022-12-05T00:01:38.529Z,7.50
2022-12-05T00:04:09.629Z,7.50
2022-12-05T00:06:38.858Z,7.50
2022-12-05T00:09:07.853Z,7.50
2022-12-05T00:11:39.161Z,7.50
2022-12-05T00:14:07.922Z,7.50
2022-12-05T00:16:37.502Z,7.50
2022-12-05T00:19:06.341Z,7.50
2022-12-05T00:21:35.597Z,7.50
2022-12-05T00:24:05.261Z,7.50
2022-12-05T00:26:32.725Z,7.60
2022-12-05T00:28:59.507Z,7.50
2022-12-05T00:31:27.083Z,7.60
2022-12-05T00:33:54.612Z,7.60
2022-12-05T00:36:27.978Z,7.60
2022-12-05T00:38:55.290Z,7.60
2022-12-05T00:41:25.534Z,7.50
2022-12-05T00:43:52.672Z,7.60
2022-12-05T00:46:22.721Z,7.60
2022-12-05T00:48:52.204Z,7.60
2022-12-05T00:51:28.934Z,7.60
2022-12-05T00:53:59.264Z,7.60
2022-12-05T00:56:27.689Z,7.60
2022-12-05T00:58:56.550Z,7.60
2022-12-05T01:01:26.811Z,7.60
2022-12-05T01:03:57.756Z,7.60
2022-12-05T01:06:25.497Z,7.60
2022-12-05T01:08:54.517Z,7.60
2022-12-05T01:11:22.538Z,7.60
2022-12-05T01:13:49.261Z,7.60
2022-12-05T01:16:30.902Z,7.60
2022-12-05T01:18:59.931Z,7.60
2022-12-05T01:21:26.148Z,7.60
2022-12-05T01:23:52.623Z,7.60
2022-12-05T01:26:21.569Z,7.60
2022-12-05T01:28:49.094Z,7.60
2022-12-05T01:31:23.891Z,7.60
2022-12-05T01:33:52.285Z,7.50
2022-12-05T01:36:18.963Z,7.60
2022-12-05T01:38:45.665Z,7.50
2022-12-05T01:41:20.029Z,7.60
2022-12-05T01:44:01.753Z,7.60
2022-12-05T01:46:35.423Z,7.50
2022-12-05T01:49:17.412Z,7.60
2022-12-05T01:51:49.573Z,7.50
2022-12-05T01:54:18.822Z,7.50
2022-12-05T01:56:56.827Z,7.50
2022-12-05T01:59:26.159Z,7.50
2022-12-05T02:01:52.481Z,7.50
2022-12-05T02:04:18.672Z,7.50
2022-12-05T02:06:46.373Z,7.50
2022-12-05T02:09:13.008Z,7.50
2022-12-05T02:12:01.623Z,7.50
2022-12-05T02:15:18.883Z,7.40
2022-12-05T02:18:23.155Z,7.40
2022-12-05T02:21:25.740Z,7.40
2022-12-05T02:24:23.026Z,7.40
2022-12-05T02:27:27.501Z,7.40
2022-12-05T02:30:05.072Z,7.30
2022-12-05T02:32:49.069Z,7.30
2022-12-05T02:35:49.823Z,7.30
2022-12-05T02:38:51.443Z,7.30
2022-12-05T02:41:34.552Z,7.30
2022-12-05T02:44:15.729Z,7.20
2022-12-05T02:46:46.397Z,7.30
2022-12-05T02:49:20.578Z,7.20
2022-12-05T02:51:54.184Z,7.20
2022-12-05T02:54:31.304Z,7.20
2022-12-05T02:56:59.790Z,7.20
2022-12-05T02:59:26.726Z,7.20
2022-12-05T03:01:53.139Z,7.20
2022-12-05T03:04:23.256Z,7.20
2022-12-05T03:06:59.153Z,7.20
2022-12-05T03:09:45.026Z,7.10
2022-12-05T03:12:28.196Z,7.10
2022-12-05T03:15:14.395Z,7.10
2022-12-05T03:18:05.715Z,7.10
2022-12-05T03:20:47.381Z,7.10
2022-12-05T03:23:27.658Z,7.10
2022-12-05T03:26:11.341Z,7.10
2022-12-05T03:29:09.722Z,7.10
2022-12-05T03:31:52.317Z,7.10
2022-12-05T03:34:44.057Z,7.00
2022-12-05T03:37:41.101Z,7.00
2022-12-05T03:40:34.312Z,7.00
2022-12-05T03:43:09.935Z,7.00
2022-12-05T03:45:55.041Z,7.00
2022-12-05T03:48:43.058Z,7.00
2022-12-05T03:51:15.832Z,7.00
2022-12-05T03:54:33.034Z,7.00
2022-12-05T03:57:16.362Z,7.00
2022-12-05T04:00:11.882Z,7.00
2022-12-05T04:03:11.052Z,7.00
2022-12-05T04:06:00.716Z,6.90
2022-12-05T04:08:45.051Z,6.90
2022-12-05T04:11:18.997Z,7.00
2022-12-05T04:14:10.752Z,6.90
2022-12-05T04:17:04.780Z,6.90
2022-12-05T04:20:16.467Z,6.90
2022-12-05T04:22:44.035Z,6.90
2022-12-05T04:25:34.935Z,6.90
2022-12-05T04:28:43.857Z,6.90
2022-12-05T04:31:25.186Z,6.90
2022-12-05T04:33:59.719Z,6.90
2022-12-05T04:36:59.852Z,6.90
2022-12-05T04:39:39.289Z,6.90
2022-12-05T04:42:14.998Z,6.90
2022-12-05T04:44:54.835Z,6.90
2022-12-05T04:47:28.105Z,6.90
2022-12-05T04:49:55.890Z,6.90
2022-12-05T04:52:24.359Z,6.90
2022-12-05T04:55:16.146Z,6.90
2022-12-05T04:57:59.297Z,6.90
2022-12-05T05:00:29.957Z,6.90
2022-12-05T05:03:23.865Z,6.90
2022-12-05T05:05:54.430Z,6.90
2022-12-05T05:08:26.569Z,6.90
2022-12-05T05:11:14.022Z,6.90
2022-12-05T05:13:40.453Z,6.90
2022-12-05T05:16:07.442Z,6.90
2022-12-05T05:18:33.766Z,6.90
2022-12-05T05:21:00.070Z,6.90
2022-12-05T05:23:26.286Z,6.90
2022-12-05T05:25:55.130Z,6.90
2022-12-05T05:28:22.233Z,6.90
2022-12-05T05:30:49.061Z,6.90
2022-12-05T05:33:15.494Z,6.90
2022-12-05T05:35:41.688Z,6.90
2022-12-05T05:38:08.542Z,6.90
2022-12-05T05:40:36.761Z,6.90
2022-12-05T05:43:03.530Z,6.90
2022-12-05T05:45:29.720Z,6.90
2022-12-05T05:47:55.899Z,6.90
2022-12-05T05:50:24.999Z,6.90
2022-12-05T05:52:51.163Z,6.90
2022-12-05T05:55:17.710Z,6.90
2022-12-05T05:57:43.986Z,6.90
2022-12-05T06:00:10.793Z,6.90
2022-12-05T06:02:37.560Z,6.90
2022-12-05T06:05:04.709Z,6.90
2022-12-05T06:07:31.065Z,6.90
2022-12-05T06:09:57.908Z,6.90
2022-12-05T06:12:24.258Z,6.90
2022-12-05T06:14:50.931Z,6.90
2022-12-05T06:17:19.681Z,6.90
2022-12-05T06:19:46.192Z,6.90
2022-12-05T06:22:12.630Z,6.90
2022-12-05T06:24:38.834Z,6.90
2022-12-05T06:27:08.040Z,6.90
2022-12-05T06:29:35.069Z,6.90
2022-12-05T06:32:01.725Z,6.90
2022-12-05T06:34:28.637Z,6.90
2022-12-05T06:36:54.818Z,6.90
2022-12-05T06:39:21.055Z,6.90
2022-12-05T06:41:47.188Z,6.90
2022-12-05T06:44:13.350Z,6.90
2022-12-05T06:46:39.537Z,6.90
2022-12-05T06:49:05.687Z,6.90
2022-12-05T06:51:31.879Z,6.90
2022-12-05T06:53:58.059Z,6.90
2022-12-05T06:56:24.243Z,6.90
2022-12-05T06:58:51.753Z,6.90
2022-12-05T07:01:39.881Z,6.80
2022-12-05T07:04:19.937Z,6.80
2022-12-05T07:06:50.883Z,6.90
2022-12-05T07:09:44.320Z,6.80
2022-12-05T07:12:11.638Z,6.90
2022-12-05T07:14:49.390Z,6.80
2022-12-05T07:17:19.311Z,6.80
2022-12-05T07:19:48.713Z,6.80
2022-12-05T07:22:19.355Z,6.90
2022-12-05T07:24:46.344Z,6.80
2022-12-05T07:27:14.748Z,6.90
2022-12-05T07:29:41.169Z,6.90
2022-12-05T07:32:08.372Z,6.90
2022-12-05T07:34:34.924Z,6.90
2022-12-05T07:37:01.169Z,6.90
2022-12-05T07:39:30.140Z,6.90
2022-12-05T07:41:56.364Z,6.90
2022-12-05T07:44:22.543Z,6.90
2022-12-05T07:46:48.925Z,6.90
2022-12-05T07:49:15.406Z,6.90
2022-12-05T07:51:41.663Z,7.00
2022-12-05T07:54:07.949Z,7.00
2022-12-05T07:56:34.116Z,7.00
2022-12-05T07:59:00.463Z,7.00
2022-12-05T08:01:28.978Z,7.00
2022-12-05T08:03:58.407Z,7.00
2022-12-05T08:06:30.396Z,7.00
2022-12-05T08:08:57.024Z,7.00
2022-12-05T08:11:30.182Z,7.00
2022-12-05T08:13:57.678Z,7.10
2022-12-05T08:16:27.990Z,7.10
2022-12-05T08:19:04.418Z,7.10
2022-12-05T08:21:31.156Z,7.10
2022-12-05T08:23:57.649Z,7.20
2022-12-05T08:26:27.626Z,7.20
2022-12-05T08:29:15.052Z,7.20
2022-12-05T08:31:48.208Z,7.20
2022-12-05T08:34:17.650Z,7.20
2022-12-05T08:36:44.991Z,7.30
2022-12-05T08:39:15.194Z,7.20
2022-12-05T08:41:47.026Z,7.30
2022-12-05T08:44:17.690Z,7.30
2022-12-05T08:46:48.208Z,7.30
2022-12-05T08:49:15.222Z,7.30
2022-12-05T08:51:42.405Z,7.30
2022-12-05T08:54:08.809Z,7.30
2022-12-05T08:56:35.042Z,7.40
2022-12-05T08:59:05.697Z,7.40
2022-12-05T09:01:33.730Z,7.40
2022-12-05T09:04:01.637Z,7.40
2022-12-05T09:06:29.000Z,7.50
2022-12-05T09:09:03.830Z,7.50
2022-12-05T09:11:34.794Z,7.50
2022-12-05T09:14:04.798Z,7.50
2022-12-05T09:16:38.591Z,7.50
2022-12-05T09:19:14.664Z,7.50
2022-12-05T09:21:45.332Z,7.60
2022-12-05T09:24:12.962Z,7.60
2022-12-05T09:26:40.289Z,7.60
2022-12-05T09:29:10.130Z,7.60
2022-12-05T09:31:42.445Z,7.60
2022-12-05T09:34:09.769Z,7.60
2022-12-05T09:36:35.920Z,7.60
2022-12-05T09:39:05.764Z,7.60
2022-12-05T09:42:03.978Z,7.60
2022-12-05T09:45:00.915Z,7.60
2022-12-05T09:47:27.444Z,7.70
2022-12-05T09:50:16.577Z,7.70
2022-12-05T09:53:07.269Z,7.70
2022-12-05T09:55:52.713Z,7.70
2022-12-05T09:58:24.426Z,7.70
2022-12-05T10:01:03.704Z,7.70
2022-12-05T10:03:36.966Z,7.70
2022-12-05T10:06:17.760Z,7.70
2022-12-05T10:09:23.623Z,7.70
2022-12-05T10:12:09.690Z,7.70
2022-12-05T10:15:08.754Z,7.70
2022-12-05T10:17:40.725Z,7.70
2022-12-05T10:20:51.420Z,7.70
2022-12-05T10:26:17.635Z,7.70
2022-12-05T10:29:04.598Z,7.70
2022-12-05T10:31:35.860Z,7.70
2022-12-05T10:34:26.465Z,7.70
2022-12-05T10:37:23.647Z,7.70
2022-12-05T10:39:51.863Z,7.70
2022-12-05T10:42:35.174Z,7.70
2022-12-05T10:45:27.982Z,7.70
2022-12-05T10:47:57.226Z,7.80
2022-12-05T10:50:31.867Z,7.80
2022-12-05T10:53:02.628Z,7.80
2022-12-05T10:55:36.286Z,7.80
2022-12-05T10:58:17.659Z,7.70
2022-12-05T11:00:48.853Z,7.80
2022-12-05T11:03:36.610Z,7.80
2022-12-05T11:06:16.191Z,7.80
2022-12-05T11:09:06.177Z,7.80
2022-12-05T11:11:33.747Z,7.80
2022-12-05T11:14:04.931Z,7.80
2022-12-05T11:16:38.869Z,7.80
2022-12-05T11:19:37.912Z,7.70
2022-12-05T11:22:07.573Z,7.80
2022-12-05T11:24:39.042Z,7.80
2022-12-05T11:27:29.064Z,7.70
2022-12-05T11:30:12.979Z,7.70
2022-12-05T11:32:39.230Z,7.70
2022-12-05T11:35:11.413Z,7.70
2022-12-05T11:38:01.330Z,7.70
2022-12-05T11:40:40.867Z,7.70
2022-12-05T11:43:27.712Z,7.70
2022-12-05T11:46:26.638Z,7.70
2022-12-05T11:49:38.415Z,7.60
2022-12-05T11:52:40.953Z,7.60
2022-12-05T11:55:51.041Z,7.60
2022-12-05T11:59:19.688Z,7.60
2022-12-05T12:02:31.922Z,7.50
2022-12-05T12:05:24.410Z,7.60
2022-12-05T12:08:27.022Z,7.60
2022-12-05T12:10:53.095Z,7.60
2022-12-05T12:14:17.057Z,7.60
2022-12-05T12:17:18.059Z,7.60
2022-12-05T12:20:19.457Z,7.60
2022-12-05T12:23:19.507Z,7.60
2022-12-05T12:26:10.618Z,7.60
2022-12-05T12:28:51.558Z,7.60
2022-12-05T12:31:41.949Z,7.60
2022-12-05T12:34:51.303Z,7.60
2022-12-05T12:37:50.690Z,7.60
2022-12-05T12:40:44.246Z,7.60
2022-12-05T12:43:58.481Z,7.50
2022-12-05T12:46:52.136Z,7.50
2022-12-05T12:50:13.647Z,7.60
2022-12-05T12:53:10.548Z,7.50
2022-12-05T12:55:59.958Z,7.50
2022-12-05T12:58:46.675Z,7.50
2022-12-05T13:01:42.228Z,7.50
2022-12-05T13:04:16.693Z,7.50
2022-12-05T13:07:15.017Z,7.50
2022-12-05T13:09:59.150Z,7.50
2022-12-05T13:12:32.009Z,7.50
2022-12-05T13:15:06.696Z,7.50
2022-12-05T13:17:33.101Z,7.50
2022-12-05T13:20:00.275Z,7.50
2022-12-05T13:22:28.577Z,7.50
2022-12-05T13:24:55.529Z,7.50
2022-12-05T13:27:27.578Z,7.50
2022-12-05T13:30:01.516Z,7.50
2022-12-05T13:32:36.219Z,7.50
2022-12-05T13:35:48.145Z,7.40
2022-12-05T13:39:02.615Z,7.40
2022-12-05T13:42:00.470Z,7.40
2022-12-05T13:44:35.913Z,7.40
2022-12-05T13:47:07.977Z,7.40
2022-12-05T13:49:55.223Z,7.40
2022-12-05T13:52:30.262Z,7.40
2022-12-05T13:55:32.271Z,7.40
2022-12-05T13:58:23.215Z,7.40
2022-12-05T14:00:50.952Z,7.40
2022-12-05T14:03:46.374Z,7.40
2022-12-05T14:06:37.320Z,7.40
2022-12-05T14:09:18.427Z,7.40
2022-12-05T14:12:09.645Z,7.40
2022-12-05T14:14:54.749Z,7.40
2022-12-05T14:17:43.408Z,7.40
2022-12-05T14:20:46.295Z,7.30
2022-12-05T14:23:55.121Z,7.30
2022-12-05T14:26:54.757Z,7.30
2022-12-05T14:30:04.845Z,7.30
2022-12-05T14:32:36.123Z,7.30
2022-12-05T14:35:14.752Z,7.20
2022-12-05T14:38:00.690Z,7.20
2022-12-05T14:40:42.995Z,7.20
2022-12-05T14:43:33.357Z,7.20
2022-12-05T14:46:03.715Z,7.20
2022-12-05T14:48:42.446Z,7.20
2022-12-05T14:51:29.974Z,7.10
2022-12-05T14:54:16.987Z,7.10
2022-12-05T14:56:50.191Z,7.10
2022-12-05T15:00:08.435Z,7.10
2022-12-05T15:02:45.496Z,7.10
2022-12-05T15:05:26.918Z,7.10
2022-12-05T15:07:56.306Z,7.10
2022-12-05T15:10:32.767Z,7.10
2022-12-05T15:13:16.963Z,7.10
2022-12-05T15:15:51.673Z,7.10
2022-12-05T15:18:33.960Z,7.10
2022-12-05T15:21:22.394Z,7.10
2022-12-05T15:23:58.649Z,7.10
2022-12-05T15:26:48.526Z,7.10
2022-12-05T15:29:23.613Z,7.10
2022-12-05T15:32:16.891Z,7.00
2022-12-05T15:35:06.267Z,7.00
2022-12-05T15:37:46.529Z,7.00
2022-12-05T15:40:21.198Z,7.00
2022-12-05T15:42:53.794Z,7.00
2022-12-05T15:45:24.203Z,7.00
2022-12-05T15:48:06.401Z,7.00
2022-12-05T15:50:58.447Z,7.00
2022-12-05T15:53:32.930Z,7.00
2022-12-05T15:56:08.821Z,7.00
2022-12-05T15:59:02.466Z,7.00
2022-12-05T16:01:29.122Z,7.00
2022-12-05T16:03:59.399Z,7.00
2022-12-05T16:06:38.975Z,7.00
2022-12-05T16:09:11.681Z,7.00
2022-12-05T16:11:38.531Z,7.00
2022-12-05T16:14:07.612Z,7.00
2022-12-05T16:16:37.875Z,7.00
2022-12-05T16:19:15.898Z,7.00
2022-12-05T16:21:46.738Z,6.90
2022-12-05T16:24:29.596Z,6.90
2022-12-05T16:27:17.150Z,7.00
2022-12-05T16:29:44.427Z,7.00
2022-12-05T16:32:24.500Z,6.90
2022-12-05T16:34:52.010Z,7.00
2022-12-05T16:37:28.775Z,7.00
2022-12-05T16:39:56.144Z,7.00
2022-12-05T16:42:28.833Z,7.00
2022-12-05T16:45:01.124Z,7.00
2022-12-05T16:47:57.761Z,7.00
2022-12-05T16:50:34.195Z,7.00
2022-12-05T16:53:32.024Z,7.00
2022-12-05T16:56:00.149Z,7.00
2022-12-05T16:58:29.859Z,7.00
2022-12-05T17:01:22.015Z,6.90
2022-12-05T17:03:55.711Z,7.00
2022-12-05T17:06:24.676Z,7.00
2022-12-05T17:08:53.378Z,7.00
2022-12-05T17:11:31.799Z,7.00
2022-12-05T17:13:58.803Z,7.00
2022-12-05T17:16:25.938Z,7.00
2022-12-05T17:18:52.756Z,7.00
2022-12-05T17:21:24.075Z,7.00
2022-12-05T17:23:50.707Z,7.00
2022-12-05T17:26:22.240Z,7.00
2022-12-05T17:28:49.662Z,7.00
2022-12-05T17:31:20.624Z,7.00
2022-12-05T17:33:48.569Z,7.00
2022-12-05T17:36:15.773Z,7.00
2022-12-05T17:38:43.332Z,7.00
2022-12-05T17:41:19.220Z,6.90
2022-12-05T17:43:46.553Z,7.00
2022-12-05T17:46:19.822Z,6.90
2022-12-05T17:48:47.328Z,7.00
2022-12-05T17:51:13.950Z,6.90
2022-12-05T17:53:42.098Z,6.90
2022-12-05T17:56:08.444Z,6.90
2022-12-05T17:58:34.745Z,6.90
2022-12-05T18:01:01.663Z,6.90
2022-12-05T18:03:29.251Z,6.90
2022-12-05T18:05:55.525Z,6.90
2022-12-05T18:08:23.296Z,6.90
2022-12-05T18:10:50.680Z,6.90
2022-12-05T18:13:17.737Z,6.90
2022-12-05T18:15:47.607Z,6.90
2022-12-05T18:18:16.914Z,6.90
2022-12-05T18:20:43.572Z,6.90
2022-12-05T18:23:10.018Z,6.90
2022-12-05T18:25:38.390Z,6.90
2022-12-05T18:28:04.596Z,6.90
2022-12-05T18:30:30.823Z,6.90
2022-12-05T18:32:57.001Z,6.80
2022-12-05T18:35:39.540Z,6.80
2022-12-05T18:38:10.789Z,6.80
2022-12-05T18:40:37.220Z,6.80
2022-12-05T18:43:03.689Z,6.80
2022-12-05T18:45:31.981Z,6.80
2022-12-05T18:48:09.751Z,6.80
2022-12-05T18:50:42.420Z,6.80
2022-12-05T18:53:08.717Z,6.80
2022-12-05T18:58:21.249Z,6.80
2022-12-05T19:00:47.518Z,6.80
2022-12-05T19:03:13.681Z,6.70
2022-12-05T19:05:41.930Z,6.70
2022-12-05T19:08:08.354Z,6.70
2022-12-05T19:10:35.666Z,6.70
2022-12-05T19:13:01.805Z,6.70
2022-12-05T19:15:28.027Z,6.70
2022-12-05T19:17:54.173Z,6.70
2022-12-05T19:20:20.593Z,6.70
2022-12-05T19:22:46.763Z,6.70
2022-12-05T19:25:18.441Z,6.70
2022-12-05T19:27:44.600Z,6.70
2022-12-05T19:30:11.287Z,6.70
2022-12-05T19:32:40.366Z,6.70
2022-12-05T19:35:07.608Z,6.70
2022-12-05T19:37:35.058Z,6.70
2022-12-05T19:40:01.412Z,6.70
2022-12-05T19:42:28.787Z,6.70
2022-12-05T19:44:54.959Z,6.70
2022-12-05T19:47:21.095Z,6.70
2022-12-05T19:49:47.335Z,6.70
2022-12-05T19:52:17.131Z,6.70
2022-12-05T19:54:44.363Z,6.70
2022-12-05T19:57:11.431Z,6.70
2022-12-05T19:59:37.763Z,6.70
2022-12-05T20:02:04.216Z,6.70
2022-12-05T20:04:30.571Z,6.70
2022-12-05T20:06:56.740Z,6.70
2022-12-05T20:09:22.912Z,6.70
2022-12-05T20:11:54.720Z,6.60
2022-12-05T20:14:24.175Z,6.60
2022-12-05T20:16:50.938Z,6.60
2022-12-05T20:19:17.336Z,6.60
2022-12-05T20:21:47.610Z,6.50
2022-12-05T20:24:14.231Z,6.60
2022-12-05T20:26:43.542Z,6.60
2022-12-05T20:29:10.474Z,6.60
2022-12-05T20:31:40.610Z,6.60
2022-12-05T20:34:12.594Z,6.50
2022-12-05T20:36:38.767Z,6.60
2022-12-05T20:39:16.950Z,6.60
2022-12-05T20:41:44.332Z,6.50
2022-12-05T20:44:15.157Z,6.50
2022-12-05T20:46:41.908Z,6.50
2022-12-05T20:49:09.110Z,6.50
2022-12-05T20:51:35.313Z,6.50
2022-12-05T20:54:04.521Z,6.50
2022-12-05T20:56:33.111Z,6.60
2022-12-05T20:59:03.299Z,6.50
2022-12-05T21:01:33.324Z,6.50
2022-12-05T21:04:00.469Z,6.50
2022-12-05T21:06:32.985Z,6.50
2022-12-05T21:09:00.731Z,6.50
2022-12-05T21:11:29.102Z,6.50
2022-12-05T21:13:59.439Z,6.50
2022-12-05T21:16:26.068Z,6.50
2022-12-05T21:18:52.631Z,6.50
2022-12-05T21:21:22.534Z,6.50
2022-12-05T21:23:55.597Z,6.50
2022-12-05T21:26:24.654Z,6.50
2022-12-05T21:28:51.589Z,6.50
2022-12-05T21:31:28.761Z,6.40
2022-12-05T21:33:59.708Z,6.40
2022-12-05T21:36:29.380Z,6.40
2022-12-05T21:38:56.642Z,6.40
2022-12-05T21:41:24.180Z,6.40
2022-12-05T21:43:54.561Z,6.40
2022-12-05T21:46:25.428Z,6.40
2022-12-05T21:48:52.025Z,6.40
2022-12-05T21:51:18.804Z,6.40
2022-12-05T21:53:44.960Z,6.40
2022-12-05T21:56:14.786Z,6.40
2022-12-05T21:58:42.714Z,6.40
2022-12-05T22:01:11.798Z,6.40
2022-12-05T22:03:38.392Z,6.40
2022-12-05T22:06:10.293Z,6.40
2022-12-05T22:08:38.466Z,6.30
2022-12-05T22:11:24.141Z,6.30
2022-12-05T22:13:52.147Z,6.30
2022-12-05T22:16:19.484Z,6.30
2022-12-05T22:18:46.601Z,6.30
2022-12-05T22:21:21.149Z,6.30
2022-12-05T22:23:48.683Z,6.30
2022-12-05T22:26:20.699Z,6.20
2022-12-05T22:28:50.029Z,6.20
2022-12-05T22:31:16.846Z,6.20
2022-12-05T22:33:44.603Z,6.20
2022-12-05T22:36:15.001Z,6.20
2022-12-05T22:38:44.666Z,6.20
2022-12-05T22:41:18.138Z,6.10
2022-12-05T22:43:47.151Z,6.20
2022-12-05T22:46:19.754Z,6.10
2022-12-05T22:48:47.997Z,6.10
2022-12-05T22:51:15.975Z,6.10
2022-12-05T22:53:42.596Z,6.10
2022-12-05T22:56:13.096Z,6.10
2022-12-05T22:58:40.696Z,6.10
2022-12-05T23:01:15.383Z,6.10
2022-12-05T23:03:43.655Z,6.10
2022-12-05T23:06:12.559Z,6.10
2022-12-05T23:08:42.140Z,6.10
2022-12-05T23:11:09.863Z,6.10
2022-12-05T23:13:37.727Z,6.20
2022-12-05T23:16:14.070Z,6.20
2022-12-05T23:18:47.948Z,6.10
2022-12-05T23:21:28.944Z,6.10
2022-12-05T23:23:59.474Z,6.10
2022-12-05T23:26:36.306Z,6.10
2022-12-05T23:29:03.723Z,6.10
2022-12-05T23:31:30.060Z,6.20
2022-12-05T23:34:01.452Z,6.20
2022-12-05T23:36:31.706Z,6.10
2022-12-05T23:38:58.034Z,6.10
2022-12-05T23:41:25.529Z,6.10
2022-12-05T23:43:52.943Z,6.10
2022-12-05T23:46:23.334Z,6.10
2022-12-05T23:48:50.698Z,6.10
2022-12-05T23:51:25.512Z,6.10
2022-12-05T23:54:01.934Z,6.10
2022-12-05T23:56:31.987Z,6.10
2022-12-05T23:58:59.598Z,6.10
